BCN weather

Barcelona International Airport
Barcelona, Catalonia, Spain

Public forecast

Using degrees Celsius for public forecast. Weather courtesy of forecast.io.

METAR (pilot weather report)

Retrieved 2018/08/20 03:30 UTC (7 minutes ago):

LEBL 200330Z 33010KT CAVOK 23/16 Q1017 NOSIG

TAF (pilot weather forecast)

Forecast is more than 12 hours old.

Retrieved 2018/08/19 00:27 UTC (1 day ago):

TAF LEBL 192300Z 2000/2024 34006KT 9999 FEW030 TX32/2012Z TN22/2006Z BECMG 2008/2010 18010KT BECMG 2018/2021 34005KT